Time;durP1;ratioP1;P1;durP2;ratioP2;P2;SDS_P1;SDS_P2;PMS_P1;PMS_P2;Temp;Humidity;BMP_temperature;BMP_pressure;BME280_temperature;BME280_humidity;BME280_pressure;Samples;Min_cycle;Max_cycle;Signal;HPM_P1;HPM_P2
2022/09/16 00:00:01;;;;;;;7.57;1.17;;;12.40;99.90;;;;;;6119681;23;20450;-88
2022/09/16 00:02:26;;;;;;;4.15;1.20;;;12.50;99.90;;;;;;6117879;23;20334;-88
2022/09/16 00:04:54;;;;;;;6.03;1.25;;;12.50;99.90;;;;;;6119531;23;20005;-84
2022/09/16 00:07:20;;;;;;;2.30;1.05;;;12.40;99.90;;;;;;6117931;23;20013;-85
2022/09/16 00:09:52;;;;;;;4.22;1.60;;;12.50;99.90;;;;;;6119809;23;20014;-88
2022/09/16 00:12:17;;;;;;;6.40;1.42;;;12.50;99.90;;;;;;6118263;23;20013;-88
2022/09/16 00:14:43;;;;;;;4.68;1.10;;;12.50;99.90;;;;;;6118297;23;20006;-87
2022/09/16 00:17:08;;;;;;;8.30;1.20;;;12.50;99.90;;;;;;6118157;23;20016;-87
2022/09/16 00:19:34;;;;;;;3.20;1.10;;;12.50;99.90;;;;;;6120051;23;20326;-88
2022/09/16 00:21:59;;;;;;;6.15;1.20;;;12.60;99.90;;;;;;6117095;23;20419;-87
2022/09/16 00:24:25;;;;;;;5.20;1.38;;;12.60;99.90;;;;;;6119389;23;20101;-85
2022/09/16 00:26:53;;;;;;;6.60;1.50;;;12.60;99.90;;;;;;6116566;23;20022;-87
2022/09/16 00:29:19;;;;;;;5.55;1.30;;;12.70;99.90;;;;;;6118967;23;19998;-87
2022/09/16 00:31:45;;;;;;;4.32;1.42;;;12.60;99.90;;;;;;6117203;23;20073;-85
2022/09/16 00:34:10;;;;;;;6.70;1.17;;;12.60;99.90;;;;;;6119838;23;20006;-87
2022/09/16 00:36:36;;;;;;;3.40;1.30;;;12.60;99.90;;;;;;6118747;23;20004;-86
2022/09/16 00:39:01;;;;;;;9.95;1.40;;;12.60;99.90;;;;;;6119253;23;20450;-88
2022/09/16 00:41:32;;;;;;;5.63;2.08;;;12.60;99.90;;;;;;6119067;23;20001;-90
2022/09/16 00:44:04;;;;;;;7.43;1.33;;;12.60;99.90;;;;;;6118789;23;20014;-89
2022/09/16 00:46:46;;;;;;;5.80;1.63;;;12.60;99.90;;;;;;6118674;23;20036;-89
2022/09/16 00:49:14;;;;;;;4.95;1.10;;;12.60;99.90;;;;;;6119269;23;20005;-84
2022/09/16 00:51:41;;;;;;;6.15;1.30;;;12.50;99.90;;;;;;6118236;23;20107;-86
2022/09/16 00:54:08;;;;;;;2.25;1.10;;;12.50;99.90;;;;;;6119981;23;20002;-86
2022/09/16 00:56:37;;;;;;;4.95;1.30;;;12.40;99.90;;;;;;6118240;23;20009;-86
2022/09/16 00:59:12;;;;;;;7.43;1.55;;;12.40;99.90;;;;;;6119989;23;20006;-89
2022/09/16 01:01:41;;;;;;;9.57;1.70;;;12.40;99.90;;;;;;6118269;23;20009;-85
2022/09/16 01:04:14;;;;;;;11.85;1.15;;;12.40;99.90;;;;;;6119550;23;20002;-87
2022/09/16 01:06:40;;;;;;;20.13;3.47;;;12.30;99.90;;;;;;6118665;23;20005;-86
2022/09/16 01:09:06;;;;;;;8.60;1.35;;;12.30;99.90;;;;;;6118740;23;20082;-85
2022/09/16 01:11:31;;;;;;;3.42;1.27;;;12.30;99.90;;;;;;6117247;23;20071;-89
2022/09/16 01:14:51;;;;;;;4.70;1.02;;;12.30;99.90;;;;;;6093681;23;20427;-87
2022/09/16 01:16:56;;;;;;;7.22;1.27;;;12.30;99.90;;;;;;6118153;23;20009;-86
2022/09/16 01:19:34;;;;;;;3.17;0.95;;;12.30;99.90;;;;;;6118824;23;20006;-85
2022/09/16 01:22:25;;;;;;;8.60;1.90;;;12.20;99.90;;;;;;6116755;23;20007;-83
2022/09/16 01:25:27;;;;;;;5.45;1.00;;;12.20;99.90;;;;;;6117377;23;19998;-87
2022/09/16 01:28:07;;;;;;;2.97;1.15;;;12.20;99.90;;;;;;6118557;23;20009;-88
2022/09/16 01:31:11;;;;;;;5.05;0.80;;;12.10;99.90;;;;;;6118443;23;20017;-89
2022/09/16 01:33:57;;;;;;;4.65;0.88;;;12.10;99.90;;;;;;6119218;23;20439;-88
2022/09/16 01:36:41;;;;;;;;;;;12.10;99.90;;;;;;6118124;23;20006;-89
2022/09/16 01:39:27;;;;;;;4.47;1.10;;;12.20;99.90;;;;;;6118580;23;20274;-85
2022/09/16 01:42:15;;;;;;;6.88;2.35;;;12.10;99.90;;;;;;6118312;23;20081;-88
2022/09/16 01:44:59;;;;;;;4.60;1.10;;;12.10;99.90;;;;;;6118104;23;20014;-90
2022/09/16 01:47:46;;;;;;;2.00;1.10;;;12.10;99.90;;;;;;6116801;23;20002;-86
2022/09/16 01:50:23;;;;;;;1.55;0.73;;;12.10;99.90;;;;;;6118826;23;20010;-89
2022/09/16 01:53:14;;;;;;;5.65;1.17;;;12.10;99.90;;;;;;6118709;23;20009;-90
2022/09/16 01:55:59;;;;;;;5.38;1.20;;;12.00;99.90;;;;;;6118020;23;19998;-88
2022/09/16 01:58:37;;;;;;;11.63;1.23;;;12.00;99.90;;;;;;6118632;23;20475;-84
2022/09/16 02:01:28;;;;;;;6.45;1.38;;;12.00;99.90;;;;;;6118168;23;20032;-89
2022/09/16 02:04:15;;;;;;;5.63;1.40;;;12.00;99.90;;;;;;6118690;23;20430;-84
2022/09/16 02:06:45;;;;;;;2.55;1.05;;;12.00;99.90;;;;;;6118557;23;20006;-88
2022/09/16 02:09:17;;;;;;;10.20;1.10;;;12.00;99.90;;;;;;6118818;23;20423;-90
2022/09/16 02:11:46;;;;;;;9.57;1.40;;;12.00;99.90;;;;;;6118417;23;20018;-86
2022/09/16 02:14:19;;;;;;;5.38;1.35;;;11.90;99.90;;;;;;6119286;23;20036;-87
2022/09/16 02:17:06;;;;;;;5.15;1.23;;;12.00;99.90;;;;;;6092640;23;20013;-87
2022/09/16 02:19:56;;;;;;;7.13;1.67;;;12.00;99.90;;;;;;6118215;23;20419;-86
2022/09/16 02:22:31;;;;;;;8.05;1.17;;;11.90;99.90;;;;;;6118713;23;20025;-84
2022/09/16 02:24:58;;;;;;;2.70;1.05;;;11.90;99.90;;;;;;6118500;23;20002;-85
2022/09/16 02:27:26;;;;;;;2.63;0.80;;;11.90;99.90;;;;;;6118671;23;20025;-88
2022/09/16 02:30:04;;;;;;;4.47;0.93;;;11.90;99.90;;;;;;6118792;23;20446;-84
2022/09/16 02:32:32;;;;;;;8.77;1.02;;;11.90;99.90;;;;;;6118782;23;20339;-87
2022/09/16 02:35:02;;;;;;;6.70;1.15;;;11.90;99.90;;;;;;6118884;23;20021;-88
2022/09/16 02:37:32;;;;;;;10.60;1.35;;;11.80;99.90;;;;;;6118555;23;20013;-87
2022/09/16 02:40:06;;;;;;;4.32;1.02;;;11.90;99.90;;;;;;6117747;23;20014;-86
2022/09/16 02:42:32;;;;;;;6.68;1.48;;;11.80;99.90;;;;;;6117369;23;20033;-87
2022/09/16 02:45:00;;;;;;;6.95;1.75;;;11.80;99.90;;;;;;6118150;23;20389;-89
2022/09/16 02:48:09;;;;;;;7.40;1.17;;;11.80;99.90;;;;;;6118537;23;20009;-89
2022/09/16 02:50:42;;;;;;;7.00;1.73;;;11.80;99.90;;;;;;6119611;23;20093;-89
2022/09/16 02:53:17;;;;;;;7.28;1.30;;;11.80;99.90;;;;;;6119531;23;20446;-88
2022/09/16 02:56:04;;;;;;;4.60;1.10;;;11.80;99.90;;;;;;6119214;23;20002;-83
2022/09/16 02:58:31;;;;;;;4.18;1.20;;;11.80;99.90;;;;;;6119911;23;20124;-89
2022/09/16 03:01:02;;;;;;;3.80;0.98;;;11.80;99.90;;;;;;6118143;23;20072;-90
2022/09/16 03:03:28;;;;;;;5.93;1.15;;;11.80;99.90;;;;;;6117898;23;20067;-89
2022/09/16 03:06:13;;;;;;;7.32;1.50;;;11.80;99.90;;;;;;6117811;23;20045;-88
2022/09/16 03:08:39;;;;;;;3.63;1.20;;;11.80;99.90;;;;;;6119363;23;20004;-90
2022/09/16 03:11:32;;;;;;;3.92;1.25;;;11.80;99.90;;;;;;6117197;23;20013;-86
2022/09/16 03:14:45;;;;;;;5.85;1.35;;;11.80;99.90;;;;;;6119705;23;20010;-88
2022/09/16 03:17:48;;;;;;;10.68;1.40;;;11.90;99.90;;;;;;6126907;23;20006;-90
2022/09/16 03:20:30;;;;;;;4.93;1.10;;;11.80;99.90;;;;;;6119674;23;20036;-86
2022/09/16 03:23:17;;;;;;;7.10;2.28;;;11.90;99.90;;;;;;6117592;23;20002;-92
2022/09/16 03:26:00;;;;;;;9.10;1.33;;;11.80;99.90;;;;;;6119068;23;20002;-90
2022/09/16 03:29:07;;;;;;;7.30;1.45;;;11.90;99.90;;;;;;6119769;23;20003;-89
2022/09/16 03:31:59;;;;;;;6.35;1.63;;;11.80;99.90;;;;;;6127165;23;20109;-84
2022/09/16 03:34:35;;;;;;;11.43;3.38;;;11.80;99.90;;;;;;6118715;23;20392;-88
2022/09/16 03:37:06;;;;;;;5.75;1.35;;;11.80;99.90;;;;;;6115761;23;20056;-88
2022/09/16 03:39:33;;;;;;;11.10;1.52;;;11.80;99.90;;;;;;6118075;23;20064;-90
2022/09/16 03:42:01;;;;;;;8.63;1.88;;;11.80;99.90;;;;;;6111839;23;20041;-89
2022/09/16 03:44:35;;;;;;;7.40;1.50;;;11.80;99.90;;;;;;6119090;23;20022;-89
2022/09/16 03:47:10;;;;;;;6.43;1.48;;;11.80;99.90;;;;;;6118734;23;20084;-88
2022/09/16 03:49:39;;;;;;;9.07;3.13;;;11.80;99.90;;;;;;6118694;23;20024;-85
2022/09/16 03:52:08;;;;;;;4.88;1.20;;;11.90;99.90;;;;;;6118507;23;20047;-86
2022/09/16 03:54:36;;;;;;;8.95;1.20;;;11.90;99.90;;;;;;6119225;23;20014;-89
2022/09/16 03:57:03;;;;;;;6.20;1.70;;;11.90;99.90;;;;;;6117778;23;20041;-88
2022/09/16 03:59:29;;;;;;;9.35;1.42;;;11.80;99.90;;;;;;6118308;23;20075;-91
2022/09/16 04:01:55;;;;;;;13.90;2.05;;;11.90;99.90;;;;;;6118975;23;20006;-89
2022/09/16 04:04:21;;;;;;;5.18;1.30;;;11.90;99.90;;;;;;6117127;23;20012;-88
2022/09/16 04:06:46;;;;;;;8.80;1.75;;;11.90;99.90;;;;;;6118931;23;20006;-85
2022/09/16 04:09:13;;;;;;;8.88;1.23;;;11.90;99.90;;;;;;6119116;23;20003;-88
2022/09/16 04:11:39;;;;;;;10.43;1.63;;;11.90;99.90;;;;;;6118303;23;20091;-87
2022/09/16 04:14:06;;;;;;;3.08;1.00;;;11.90;99.90;;;;;;6119659;23;20009;-87
2022/09/16 04:16:32;;;;;;;6.03;1.60;;;11.90;99.90;;;;;;6119444;23;20006;-88
2022/09/16 04:19:00;;;;;;;8.15;1.58;;;11.90;99.90;;;;;;6091167;23;20002;-87
2022/09/16 04:21:29;;;;;;;8.10;1.80;;;11.90;99.90;;;;;;6117322;23;20009;-88
2022/09/16 04:23:55;;;;;;;5.43;1.63;;;11.90;99.90;;;;;;6118101;23;20009;-87
2022/09/16 04:26:20;;;;;;;16.45;1.80;;;11.90;99.90;;;;;;6117016;23;19994;-88
2022/09/16 04:28:46;;;;;;;11.38;1.63;;;11.90;99.90;;;;;;6119711;23;19998;-88
2022/09/16 04:31:14;;;;;;;7.43;1.27;;;11.90;99.90;;;;;;6118118;23;20013;-86
2022/09/16 04:33:40;;;;;;;8.88;1.42;;;12.00;99.90;;;;;;6119025;23;20006;-88
2022/09/16 04:36:09;;;;;;;3.38;1.70;;;12.00;99.90;;;;;;6118056;23;20041;-88
2022/09/16 04:38:35;;;;;;;7.90;1.70;;;12.00;99.90;;;;;;6089707;23;20078;-85
2022/09/16 04:41:12;;;;;;;4.28;1.50;;;12.00;99.90;;;;;;6117497;23;20335;-87
2022/09/16 04:43:38;;;;;;;4.65;1.23;;;12.00;99.90;;;;;;6115956;23;20014;-88
2022/09/16 04:46:06;;;;;;;8.63;1.27;;;12.10;99.90;;;;;;6115348;23;20366;-83
2022/09/16 04:48:32;;;;;;;6.40;1.38;;;12.00;99.90;;;;;;6116024;23;20012;-89
2022/09/16 04:51:05;;;;;;;9.65;1.83;;;12.00;99.90;;;;;;6113842;23;20014;-83
2022/09/16 04:53:30;;;;;;;8.30;1.42;;;12.10;99.90;;;;;;6117902;23;19998;-88
2022/09/16 04:56:14;;;;;;;4.10;1.35;;;12.10;99.90;;;;;;6119935;23;20002;-85
2022/09/16 04:59:04;;;;;;;8.77;2.90;;;12.10;99.90;;;;;;6119662;23;20331;-90
2022/09/16 05:01:32;;;;;;;11.30;2.90;;;12.10;99.90;;;;;;6121970;23;20109;-89
2022/09/16 05:04:03;;;;;;;5.57;0.90;;;12.00;99.90;;;;;;6120068;23;20005;-91
2022/09/16 05:06:32;;;;;;;8.88;1.45;;;12.00;99.90;;;;;;6117671;23;20002;-90
2022/09/16 05:09:00;;;;;;;9.02;1.40;;;12.00;99.90;;;;;;6119413;23;20002;-91
2022/09/16 05:11:29;;;;;;;10.50;1.63;;;12.00;99.90;;;;;;6118813;23;20443;-90
2022/09/16 05:14:06;;;;;;;9.73;1.38;;;12.00;99.90;;;;;;6119209;23;20016;-88
2022/09/16 05:16:33;;;;;;;6.78;1.20;;;12.00;99.90;;;;;;6118668;23;20002;-90
2022/09/16 05:19:04;;;;;;;3.78;1.20;;;12.00;99.90;;;;;;6118902;23;20462;-89
2022/09/16 05:21:33;;;;;;;6.10;1.20;;;12.10;99.90;;;;;;6117441;23;20002;-87
2022/09/16 05:24:04;;;;;;;8.93;1.45;;;12.10;99.90;;;;;;6118447;23;20005;-89
2022/09/16 05:26:31;;;;;;;3.15;0.98;;;12.10;99.90;;;;;;6117438;23;20467;-90
2022/09/16 05:29:12;;;;;;;8.18;1.30;;;12.10;99.90;;;;;;6117941;23;20002;-90
2022/09/16 05:31:40;;;;;;;2.00;1.15;;;12.00;99.90;;;;;;6118452;23;20656;-89
2022/09/16 05:34:14;;;;;;;3.72;1.38;;;12.00;99.90;;;;;;6120251;23;20002;-89
2022/09/16 05:36:42;;;;;;;9.70;2.33;;;12.10;99.90;;;;;;6118524;23;20006;-89
2022/09/16 05:39:10;;;;;;;7.65;1.20;;;12.00;99.90;;;;;;6120571;23;20319;-88
2022/09/16 05:41:35;;;;;;;4.40;1.20;;;12.00;99.90;;;;;;6118298;23;20006;-90
2022/09/16 05:44:02;;;;;;;7.13;1.55;;;12.10;99.90;;;;;;6116920;23;20014;-88
2022/09/16 05:46:28;;;;;;;2.05;0.98;;;12.10;99.90;;;;;;6118370;23;20447;-90
2022/09/16 05:48:56;;;;;;;9.32;1.60;;;12.20;99.90;;;;;;6120836;23;20006;-89
2022/09/16 05:51:24;;;;;;;4.30;1.20;;;12.10;99.90;;;;;;6120145;23;20017;-83
2022/09/16 05:53:51;;;;;;;8.77;1.25;;;12.10;99.90;;;;;;6120585;23;20002;-90
2022/09/16 05:56:26;;;;;;;5.30;1.13;;;12.00;99.90;;;;;;6120794;23;20001;-90
2022/09/16 05:58:53;;;;;;;3.83;1.13;;;12.00;99.90;;;;;;6120522;23;20439;-87
2022/09/16 06:01:26;;;;;;;5.00;1.15;;;12.00;99.90;;;;;;6121069;23;20010;-87
2022/09/16 06:03:56;;;;;;;4.07;1.20;;;12.00;99.90;;;;;;6120675;23;20081;-87
2022/09/16 06:06:24;;;;;;;5.85;1.52;;;12.00;99.90;;;;;;6121324;23;20069;-87
2022/09/16 06:08:52;;;;;;;3.30;1.05;;;12.00;99.90;;;;;;6120787;23;20206;-88
2022/09/16 06:11:17;;;;;;;4.38;1.00;;;12.00;99.90;;;;;;6120832;23;20021;-89
2022/09/16 06:13:43;;;;;;;6.32;1.30;;;12.00;99.90;;;;;;6119751;23;20026;-85
2022/09/16 06:16:09;;;;;;;7.10;1.35;;;12.00;99.90;;;;;;6119613;23;20006;-88
2022/09/16 06:18:36;;;;;;;6.60;1.17;;;12.00;99.90;;;;;;6118168;23;20006;-85
2022/09/16 06:21:10;;;;;;;5.00;1.30;;;12.10;99.90;;;;;;6119340;23;20021;-86
2022/09/16 06:23:38;;;;;;;2.80;1.20;;;12.10;99.90;;;;;;6117468;23;20002;-85
2022/09/16 06:26:06;;;;;;;5.53;0.90;;;12.10;99.90;;;;;;6120462;23;19999;-91
2022/09/16 06:28:32;;;;;;;3.80;1.50;;;12.20;99.90;;;;;;6119915;23;20006;-90
2022/09/16 06:31:13;;;;;;;5.78;1.02;;;12.20;99.90;;;;;;6120265;23;20087;-90
2022/09/16 06:33:39;;;;;;;4.28;1.13;;;12.30;99.90;;;;;;6119640;23;20013;-87
2022/09/16 06:36:07;;;;;;;3.33;1.02;;;12.30;99.90;;;;;;6120592;23;20032;-85
2022/09/16 06:38:33;;;;;;;4.20;1.00;;;12.30;99.90;;;;;;6119545;23;20097;-88
2022/09/16 06:41:04;;;;;;;6.15;1.40;;;12.40;99.90;;;;;;6120363;23;20087;-92
2022/09/16 06:43:30;;;;;;;6.13;1.05;;;12.40;99.90;;;;;;6119540;23;20111;-90
2022/09/16 06:46:04;;;;;;;4.50;1.08;;;12.50;99.90;;;;;;6120391;23;20067;-88
2022/09/16 06:48:33;;;;;;;4.13;1.10;;;12.60;99.90;;;;;;6119617;23;20119;-87
2022/09/16 06:51:08;;;;;;;6.18;1.23;;;12.70;99.90;;;;;;6120053;23;20450;-89
2022/09/16 06:53:34;;;;;;;5.45;1.05;;;12.70;99.90;;;;;;6119950;23;20041;-88
2022/09/16 06:56:11;;;;;;;6.05;1.40;;;12.80;99.90;;;;;;6120354;23;20069;-88
2022/09/16 06:58:40;;;;;;;11.88;1.00;;;12.90;99.90;;;;;;6119637;23;20010;-87
2022/09/16 07:01:13;;;;;;;8.73;1.20;;;13.00;99.90;;;;;;6120186;23;20055;-89
2022/09/16 07:03:42;;;;;;;4.97;1.10;;;13.00;99.90;;;;;;6119371;23;20327;-87
2022/09/16 07:06:08;;;;;;;2.95;0.82;;;12.90;99.90;;;;;;6120255;23;20002;-87
2022/09/16 07:08:35;;;;;;;5.10;1.23;;;12.90;99.90;;;;;;6119360;23;20086;-88
2022/09/16 07:11:05;;;;;;;2.65;0.70;;;12.90;99.90;;;;;;6119842;23;20007;-83
2022/09/16 07:13:31;;;;;;;4.72;1.05;;;12.90;99.90;;;;;;6119411;23;20025;-91
2022/09/16 07:16:02;;;;;;;4.88;1.45;;;12.80;99.90;;;;;;6120314;23;20006;-88
2022/09/16 07:18:29;;;;;;;5.05;0.90;;;12.80;99.90;;;;;;6119699;23;20024;-86
2022/09/16 07:21:27;;;;;;;1.75;0.70;;;12.80;99.90;;;;;;6120381;23;20006;-88
2022/09/16 07:23:58;;;;;;;3.80;0.90;;;12.80;99.90;;;;;;6124560;23;20006;-84
2022/09/16 07:26:27;;;;;;;8.63;1.30;;;12.90;99.90;;;;;;6120298;23;20137;-91
2022/09/16 07:28:53;;;;;;;3.28;1.15;;;12.90;99.90;;;;;;6119330;23;20002;-86
2022/09/16 07:31:25;;;;;;;3.55;1.42;;;12.90;99.90;;;;;;6119817;23;20498;-91
2022/09/16 07:33:56;;;;;;;5.35;1.33;;;12.80;99.90;;;;;;6119386;23;20002;-86
2022/09/16 07:36:25;;;;;;;3.92;1.10;;;12.80;99.90;;;;;;6120317;23;20009;-86
2022/09/16 07:38:51;;;;;;;3.97;1.00;;;12.70;99.90;;;;;;6119777;23;19994;-88
2022/09/16 07:41:22;;;;;;;5.13;0.90;;;12.70;99.90;;;;;;6120531;23;20009;-90
2022/09/16 07:43:49;;;;;;;2.72;1.20;;;12.70;99.90;;;;;;6119515;23;20377;-93
2022/09/16 07:46:17;;;;;;;0.90;0.85;;;12.60;99.90;;;;;;6120414;23;20009;-90
2022/09/16 07:48:44;;;;;;;2.78;0.90;;;12.50;99.90;;;;;;6119797;23;20018;-93
2022/09/16 07:51:13;;;;;;;1.95;1.13;;;12.50;99.90;;;;;;6120143;23;20285;-90
2022/09/16 07:53:39;;;;;;;9.55;3.95;;;12.40;99.90;;;;;;6119320;23;20002;-84
2022/09/16 07:56:17;;;;;;;8.25;1.20;;;12.40;99.90;;;;;;6120315;23;20075;-89
2022/09/16 07:58:44;;;;;;;6.00;1.23;;;12.40;99.90;;;;;;6119434;23;19998;-93
2022/09/16 08:01:12;;;;;;;1.15;0.57;;;12.40;99.90;;;;;;6120673;23;20014;-93
2022/09/16 08:03:38;;;;;;;6.13;1.30;;;12.40;99.90;;;;;;6118656;23;20006;-89
2022/09/16 08:06:16;;;;;;;1.73;0.70;;;12.50;99.90;;;;;;6120377;23;20002;-89
2022/09/16 08:08:42;;;;;;;4.72;0.82;;;12.50;99.90;;;;;;6119432;23;20005;-92
2022/09/16 08:11:13;;;;;;;1.17;0.60;;;12.50;99.90;;;;;;6094785;23;20396;-90
2022/09/16 08:13:40;;;;;;;3.25;1.20;;;12.60;99.90;;;;;;6119168;23;20006;-89
2022/09/16 08:16:09;;;;;;;5.53;1.38;;;12.60;99.90;;;;;;6094624;23;20381;-89
2022/09/16 08:18:35;;;;;;;4.68;1.17;;;12.60;99.90;;;;;;6119139;23;20331;-86
2022/09/16 08:21:13;;;;;;;2.92;0.73;;;12.70;99.90;;;;;;6120498;23;20039;-89
2022/09/16 08:23:39;;;;;;;2.92;0.98;;;12.70;99.90;;;;;;6119199;23;20037;-88
2022/09/16 08:26:12;;;;;;;2.78;0.80;;;12.80;99.90;;;;;;6120119;23;20005;-87
2022/09/16 08:28:41;;;;;;;3.00;1.02;;;12.90;99.90;;;;;;6119076;23;20009;-91
2022/09/16 08:31:07;;;;;;;3.20;1.05;;;12.90;99.90;;;;;;6120081;23;20041;-86
2022/09/16 08:33:33;;;;;;;8.57;1.27;;;12.90;99.90;;;;;;6119240;23;20008;-86
2022/09/16 08:36:01;;;;;;;2.38;0.98;;;13.00;99.90;;;;;;6120001;23;20032;-93
2022/09/16 08:38:28;;;;;;;5.85;1.30;;;13.10;99.90;;;;;;6119434;23;20033;-91
2022/09/16 08:41:12;;;;;;;7.55;1.50;;;13.10;99.90;;;;;;6120156;23;20010;-88
2022/09/16 08:44:15;;;;;;;7.03;1.98;;;13.30;99.90;;;;;;6118692;23;20014;-91
2022/09/16 08:46:56;;;;;;;1.65;0.65;;;13.30;99.90;;;;;;6120198;23;20009;-92
2022/09/16 08:49:46;;;;;;;3.95;1.10;;;13.40;99.90;;;;;;6119309;23;20025;-85
2022/09/16 08:52:24;;;;;;;7.63;1.92;;;13.50;99.90;;;;;;6118961;23;20006;-82
2022/09/16 08:54:59;;;;;;;5.05;1.15;;;13.60;99.90;;;;;;6120028;23;19998;-86
2022/09/16 08:57:27;;;;;;;;;;;13.70;99.90;;;;;;6119386;23;20008;-89
2022/09/16 09:00:03;;;;;;;6.20;0.88;;;13.70;99.90;;;;;;6119537;23;19901;-86
2022/09/16 09:02:40;;;;;;;2.25;0.80;;;13.70;99.90;;;;;;6118924;23;20002;-84
2022/09/16 09:05:39;;;;;;;5.30;0.70;;;13.70;99.90;;;;;;6118817;23;19998;-89
2022/09/16 09:08:16;;;;;;;8.20;1.30;;;13.70;99.90;;;;;;6121786;23;20029;-88
2022/09/16 09:10:50;;;;;;;6.25;0.93;;;13.80;99.90;;;;;;6119661;23;20040;-86
2022/09/16 09:13:32;;;;;;;8.73;0.70;;;13.90;99.90;;;;;;6118453;23;20002;-84
2022/09/16 09:16:29;;;;;;;5.57;1.05;;;14.00;99.90;;;;;;6119359;23;19998;-85
2022/09/16 09:19:33;;;;;;;3.15;0.93;;;14.10;99.90;;;;;;6118840;23;20324;-89
2022/09/16 09:22:20;;;;;;;6.43;0.80;;;14.10;99.90;;;;;;6119583;23;20009;-90
2022/09/16 09:25:16;;;;;;;4.72;0.80;;;14.00;99.90;;;;;;6119403;23;20613;-88
2022/09/16 09:28:04;;;;;;;5.45;0.90;;;14.10;99.90;;;;;;6118880;23;20010;-82
2022/09/16 09:30:32;;;;;;;2.55;0.90;;;14.10;99.90;;;;;;6119325;23;20013;-88
2022/09/16 09:33:43;;;;;;;3.88;0.90;;;14.10;99.90;;;;;;6118547;23;20005;-85
2022/09/16 09:36:29;;;;;;;5.90;1.02;;;14.10;99.90;;;;;;6118727;23;19999;-86
2022/09/16 09:39:14;;;;;;;6.80;1.00;;;14.20;99.90;;;;;;6118727;23;20029;-89
2022/09/16 09:41:44;;;;;;;3.22;0.75;;;14.30;99.90;;;;;;6119613;23;20096;-88
2022/09/16 09:44:45;;;;;;;2.95;0.75;;;14.30;99.90;;;;;;6113963;23;20426;-90
2022/09/16 09:47:18;;;;;;;6.03;1.00;;;14.50;99.90;;;;;;6147769;23;20449;-86
2022/09/16 09:49:53;;;;;;;7.65;1.65;;;14.40;99.90;;;;;;6149118;23;20059;-85
2022/09/16 09:52:22;;;;;;;6.55;1.40;;;14.40;99.90;;;;;;6148469;23;20051;-90
2022/09/16 09:54:51;;;;;;;3.53;0.93;;;14.30;99.90;;;;;;6149461;23;20012;-84
2022/09/16 09:57:36;;;;;;;6.40;1.23;;;14.30;99.90;;;;;;6147970;23;19998;-87
2022/09/16 10:00:15;;;;;;;1.92;0.70;;;14.30;99.90;;;;;;6149264;23;20036;-87
2022/09/16 10:02:42;;;;;;;2.33;0.82;;;14.30;99.90;;;;;;6146948;23;20312;-83
2022/09/16 10:05:26;;;;;;;2.78;0.90;;;14.40;99.90;;;;;;6145721;23;20008;-88
2022/09/16 10:07:54;;;;;;;4.53;0.95;;;14.40;99.90;;;;;;6142277;23;20342;-90
2022/09/16 10:10:22;;;;;;;5.30;1.25;;;14.40;99.90;;;;;;6145398;23;20021;-86
2022/09/16 10:12:48;;;;;;;6.07;0.90;;;14.40;99.90;;;;;;6144618;23;20006;-88
2022/09/16 10:15:30;;;;;;;4.63;1.23;;;14.50;99.90;;;;;;6148541;23;20012;-85
2022/09/16 10:17:59;;;;;;;10.43;1.23;;;14.50;99.90;;;;;;6148952;23;20008;-91
2022/09/16 10:20:32;;;;;;;4.97;1.20;;;14.60;99.90;;;;;;6149986;23;20006;-84
2022/09/16 10:23:15;;;;;;;11.88;2.75;;;14.50;99.90;;;;;;6148986;23;20010;-88
2022/09/16 10:25:42;;;;;;;5.82;1.00;;;14.50;99.90;;;;;;6150247;23;20021;-87
2022/09/16 10:28:18;;;;;;;1.23;0.70;;;14.60;99.90;;;;;;6148686;23;20002;-86
2022/09/16 10:30:48;;;;;;;6.78;1.25;;;14.60;99.90;;;;;;6149003;23;20014;-83
2022/09/16 10:33:23;;;;;;;5.28;1.20;;;14.70;99.90;;;;;;6148782;23;20438;-82
2022/09/16 10:36:01;;;;;;;3.95;0.93;;;14.70;99.90;;;;;;6150027;23;20001;-90
2022/09/16 10:38:41;;;;;;;8.45;1.05;;;14.60;99.90;;;;;;6146495;23;20044;-86
2022/09/16 10:41:20;;;;;;;4.78;1.05;;;14.60;99.90;;;;;;6145503;23;20419;-86
2022/09/16 10:43:50;;;;;;;6.47;1.10;;;14.60;99.90;;;;;;6138852;23;20090;-85
2022/09/16 10:46:17;;;;;;;1.42;0.80;;;14.60;99.90;;;;;;6118547;23;20009;-87
2022/09/16 10:48:44;;;;;;;9.48;1.48;;;14.60;99.90;;;;;;6118513;23;20006;-90
2022/09/16 10:51:32;;;;;;;4.53;1.20;;;14.70;99.90;;;;;;6119602;23;20017;-90
2022/09/16 10:54:00;;;;;;;12.27;1.85;;;14.70;99.90;;;;;;6118170;23;20064;-90
2022/09/16 10:56:33;;;;;;;4.10;0.98;;;14.60;99.90;;;;;;6120296;23;20508;-88
2022/09/16 10:59:12;;;;;;;9.15;1.75;;;14.60;99.90;;;;;;6117494;23;20029;-89
2022/09/16 11:02:20;;;;;;;5.35;0.88;;;14.50;99.90;;;;;;6120413;23;20056;-88
2022/09/16 11:05:16;;;;;;;7.45;1.17;;;14.40;99.90;;;;;;6119073;23;20089;-87
2022/09/16 11:07:52;;;;;;;4.10;1.17;;;14.60;99.90;;;;;;6119195;23;20006;-92
2022/09/16 11:10:27;;;;;;;5.82;1.13;;;14.60;99.90;;;;;;6119528;23;20018;-91
2022/09/16 11:13:25;;;;;;;6.07;1.25;;;14.50;99.90;;;;;;6120150;23;19998;-90
2022/09/16 11:16:20;;;;;;;9.63;0.93;;;14.50;99.90;;;;;;6120647;23;20002;-88
2022/09/16 11:18:53;;;;;;;9.27;1.27;;;14.50;99.90;;;;;;6145466;23;20033;-91
2022/09/16 11:21:48;;;;;;;12.63;1.13;;;14.70;99.90;;;;;;6119879;23;20418;-91
2022/09/16 11:24:23;;;;;;;12.65;1.70;;;14.80;99.90;;;;;;6118469;23;20458;-91
2022/09/16 11:27:14;;;;;;;2.80;1.00;;;15.00;99.90;;;;;;6119002;23;20419;-87
2022/09/16 11:30:00;;;;;;;5.88;2.08;;;15.00;99.90;;;;;;6117683;23;19999;-84
2022/09/16 11:32:45;;;;;;;4.13;1.23;;;15.00;99.90;;;;;;6119479;23;20047;-83
2022/09/16 11:35:33;;;;;;;9.18;1.15;;;15.00;99.90;;;;;;6120379;23;20077;-88
2022/09/16 11:38:16;;;;;;;3.00;0.95;;;14.80;99.90;;;;;;6093511;23;20085;-84
2022/09/16 11:40:47;;;;;;;5.68;0.77;;;14.80;99.90;;;;;;6119201;23;20006;-84
2022/09/16 11:43:37;;;;;;;4.75;0.95;;;14.90;99.90;;;;;;6119292;23;20022;-88
2022/09/16 11:46:14;;;;;;;2.92;0.85;;;14.90;99.90;;;;;;6119989;23;20443;-84
2022/09/16 11:49:05;;;;;;;5.05;1.15;;;15.00;99.90;;;;;;6119105;23;20024;-87
2022/09/16 11:51:59;;;;;;;3.67;0.90;;;15.20;99.90;;;;;;6119985;23;20021;-86
2022/09/16 11:54:51;;;;;;;4.95;1.02;;;15.40;99.90;;;;;;6119379;23;20021;-83
2022/09/16 11:57:21;;;;;;;2.83;0.75;;;15.30;99.90;;;;;;6119419;23;20018;-86
2022/09/16 12:00:11;;;;;;;6.25;1.58;;;15.40;99.90;;;;;;6118399;23;20013;-84
2022/09/16 12:02:54;;;;;;;6.88;1.00;;;15.50;99.90;;;;;;6093396;23;20006;-82
2022/09/16 12:05:28;;;;;;;9.02;2.38;;;15.50;99.90;;;;;;6119969;23;20006;-83
2022/09/16 12:08:10;;;;;;;7.15;0.80;;;15.70;99.90;;;;;;6117162;23;20380;-86
2022/09/16 12:10:48;;;;;;;3.33;0.95;;;15.80;99.90;;;;;;6119348;23;20006;-88
2022/09/16 12:13:18;;;;;;;6.13;1.02;;;16.00;99.90;;;;;;6117965;23;20308;-84
2022/09/16 12:16:05;;;;;;;4.18;1.00;;;16.00;99.90;;;;;;6118899;23;20502;-83
2022/09/16 12:18:38;;;;;;;10.77;1.13;;;16.20;99.70;;;;;;6116775;23;20343;-88
2022/09/16 12:21:27;;;;;;;4.55;1.35;;;16.20;99.90;;;;;;6117698;23;20137;-86
2022/09/16 12:24:17;;;;;;;13.82;2.03;;;16.30;99.90;;;;;;6118531;23;20022;-87
2022/09/16 12:26:50;;;;;;;9.30;1.23;;;16.40;99.90;;;;;;6117185;23;20005;-84
2022/09/16 12:29:30;;;;;;;5.07;1.00;;;16.60;99.50;;;;;;6117788;23;20067;-84
2022/09/16 12:32:14;;;;;;;13.55;1.80;;;16.70;97.90;;;;;;6119803;23;20021;-86
2022/09/16 12:35:00;;;;;;;10.50;1.85;;;16.70;96.10;;;;;;6117947;23;20002;-84
2022/09/16 12:37:38;;;;;;;5.40;1.13;;;16.70;95.10;;;;;;6118765;23;20006;-80
2022/09/16 12:40:05;;;;;;;6.20;1.45;;;16.80;94.90;;;;;;6092248;23;20028;-80
2022/09/16 12:43:09;;;;;;;5.50;1.73;;;16.80;95.20;;;;;;6119526;23;20009;-82
2022/09/16 12:46:04;;;;;;;4.45;1.15;;;17.00;93.20;;;;;;6118757;23;20049;-84
2022/09/16 12:49:10;;;;;;;13.52;1.27;;;17.10;93.30;;;;;;6118604;23;20032;-86
2022/09/16 12:52:05;;;;;;;9.50;1.20;;;17.10;94.60;;;;;;6092661;23;20006;-85
2022/09/16 12:54:49;;;;;;;3.35;0.80;;;17.00;94.90;;;;;;6118154;23;20006;-87
2022/09/16 12:57:43;;;;;;;2.92;0.95;;;16.70;94.30;;;;;;6117760;23;20347;-83
2022/09/16 13:00:19;;;;;;;2.05;1.00;;;16.70;96.70;;;;;;6118188;23;20089;-82
2022/09/16 13:02:52;;;;;;;5.13;1.02;;;16.70;97.20;;;;;;6118398;23;19998;-89
2022/09/16 13:05:24;;;;;;;13.10;2.22;;;16.60;96.00;;;;;;6117779;23;20072;-86
2022/09/16 13:07:54;;;;;;;7.68;1.17;;;16.60;98.20;;;;;;6117144;23;20095;-85
2022/09/16 13:10:41;;;;;;;6.78;1.25;;;16.70;99.90;;;;;;6116481;23;20319;-88
2022/09/16 13:13:23;;;;;;;4.03;1.10;;;16.70;99.30;;;;;;6115739;23;20426;-86
2022/09/16 13:15:57;;;;;;;8.55;1.35;;;16.80;99.50;;;;;;6117600;23;20057;-90
2022/09/16 13:18:37;;;;;;;5.88;1.00;;;17.00;99.90;;;;;;6117187;23;20005;-83
2022/09/16 13:21:31;;;;;;;14.35;1.70;;;17.10;97.90;;;;;;6118504;23;20009;-84
2022/09/16 13:24:11;;;;;;;6.43;1.40;;;17.00;96.70;;;;;;6119336;23;20059;-88
2022/09/16 13:26:42;;;;;;;5.85;1.40;;;17.10;99.30;;;;;;6119191;23;20093;-82